createdAt,value
2023-01-17T00:01:20.404Z,0.20
2023-01-17T00:04:05.367Z,0.20
2023-01-17T00:06:52.229Z,0.30
2023-01-17T00:09:37.591Z,0.30
2023-01-17T00:12:05.779Z,0.40
2023-01-17T00:14:33.615Z,0.30
2023-01-17T00:17:02.122Z,0.20
2023-01-17T00:19:47.491Z,0.20
2023-01-17T00:22:39.988Z,0.30
2023-01-17T00:25:28.277Z,0.40
2023-01-17T00:27:55.026Z,0.50
2023-01-17T00:30:21.914Z,0.70
2023-01-17T00:32:48.613Z,0.80
2023-01-17T00:35:15.549Z,0.90
2023-01-17T00:37:43.591Z,0.80
2023-01-17T00:40:11.245Z,1.00
2023-01-17T00:42:37.952Z,1.10
2023-01-17T00:45:24.261Z,1.10
2023-01-17T00:48:09.711Z,1.10
2023-01-17T00:50:55.188Z,1.10
2023-01-17T00:53:42.099Z,1.10
2023-01-17T00:56:27.449Z,1.20
2023-01-17T00:59:12.992Z,1.20
2023-01-17T01:01:58.520Z,1.30
2023-01-17T01:04:43.975Z,1.30
2023-01-17T01:07:29.436Z,1.40
2023-01-17T01:10:16.193Z,1.30
2023-01-17T01:13:01.605Z,1.30
2023-01-17T01:15:46.964Z,1.40
2023-01-17T01:18:33.107Z,1.40
2023-01-17T01:21:21.244Z,1.40
2023-01-17T01:24:06.702Z,1.40
2023-01-17T01:26:53.604Z,1.50
2023-01-17T01:29:39.118Z,1.40
2023-01-17T01:32:24.442Z,1.40
2023-01-17T01:34:52.201Z,1.30
2023-01-17T01:37:19.981Z,1.30
2023-01-17T01:39:47.759Z,1.30
2023-01-17T01:42:16.931Z,1.10
2023-01-17T01:44:46.923Z,1.10
2023-01-17T01:47:16.435Z,1.10
2023-01-17T01:49:44.218Z,1.20
2023-01-17T01:52:11.991Z,1.10
2023-01-17T01:54:42.490Z,1.00
2023-01-17T01:57:11.589Z,0.90
2023-01-17T01:59:42.001Z,0.90
2023-01-17T02:02:09.788Z,0.90
2023-01-17T02:04:37.598Z,0.90
2023-01-17T02:07:08.107Z,0.60
2023-01-17T02:09:35.887Z,0.60
2023-01-17T02:12:03.940Z,0.60
2023-01-17T02:14:31.721Z,0.40
2023-01-17T02:17:11.330Z,0.50
2023-01-17T02:20:03.677Z,0.50
2023-01-17T02:22:49.243Z,0.60
2023-01-17T02:25:27.475Z,0.80
2023-01-17T02:28:04.083Z,0.60
2023-01-17T02:30:34.934Z,0.70
2023-01-17T02:33:07.186Z,0.70
2023-01-17T02:35:37.407Z,0.70
2023-01-17T02:38:11.449Z,0.50
2023-01-17T02:40:40.496Z,0.50
2023-01-17T02:43:11.043Z,0.40
2023-01-17T02:45:40.227Z,0.40
2023-01-17T02:48:08.914Z,0.40
2023-01-17T02:50:44.295Z,0.30
2023-01-17T02:53:18.270Z,0.30
2023-01-17T02:55:51.416Z,0.30
2023-01-17T02:58:35.469Z,0.10
2023-01-17T03:01:11.429Z,0.10
2023-01-17T03:03:42.929Z,0.10
2023-01-17T03:06:12.494Z,0.00
2023-01-17T03:08:41.051Z,-0.10
2023-01-17T03:11:09.717Z,-0.10
2023-01-17T03:13:37.551Z,-0.20
2023-01-17T03:16:07.847Z,-0.10
2023-01-17T03:18:35.688Z,-0.30
2023-01-17T03:21:03.486Z,-0.20
2023-01-17T03:23:31.251Z,-0.30
2023-01-17T03:25:59.042Z,-0.30
2023-01-17T03:28:26.813Z,-0.40
2023-01-17T03:30:54.684Z,-0.30
2023-01-17T03:33:24.265Z,-0.30
2023-01-17T03:35:52.643Z,-0.20
2023-01-17T03:38:20.493Z,-0.50
2023-01-17T03:40:48.281Z,-0.50
2023-01-17T03:43:16.059Z,-0.40
2023-01-17T03:45:43.866Z,-0.40
2023-01-17T03:48:11.884Z,-0.30
2023-01-17T03:50:41.033Z,-0.30
2023-01-17T03:53:08.828Z,-0.40
2023-01-17T03:55:36.624Z,-0.50
2023-01-17T03:58:04.394Z,-0.40
2023-01-17T04:00:32.191Z,0.00
2023-01-17T04:03:00.091Z,0.10
2023-01-17T04:05:27.881Z,-0.10
2023-01-17T04:07:57.005Z,-0.30
2023-01-17T04:10:24.806Z,-0.50
2023-01-17T04:12:52.579Z,0.30
2023-01-17T04:15:20.369Z,0.10
2023-01-17T04:17:48.174Z,0.00
2023-01-17T04:20:18.056Z,-0.30
2023-01-17T04:22:45.839Z,-0.50
2023-01-17T04:25:15.040Z,-0.50
2023-01-17T04:27:42.949Z,-0.80
2023-01-17T04:30:12.272Z,-0.80
2023-01-17T04:32:40.051Z,-1.00
2023-01-17T04:35:09.406Z,-1.00
2023-01-17T04:37:37.181Z,-1.00
2023-01-17T04:40:05.244Z,-1.00
2023-01-17T04:42:34.410Z,-1.00
2023-01-17T04:45:02.190Z,-1.10
2023-01-17T04:47:29.967Z,-1.10
2023-01-17T04:49:57.767Z,-1.00
2023-01-17T04:52:25.547Z,-1.40
2023-01-17T04:54:53.398Z,-1.30
2023-01-17T04:57:21.256Z,-1.30
2023-01-17T04:59:50.352Z,-1.30
2023-01-17T05:02:18.161Z,-1.20
2023-01-17T05:04:46.006Z,-1.40
2023-01-17T05:07:13.785Z,-1.60
2023-01-17T05:09:41.622Z,-1.40
2023-01-17T05:12:09.483Z,-1.60
2023-01-17T05:14:37.257Z,-1.60
2023-01-17T05:17:06.423Z,-1.50
2023-01-17T05:19:34.206Z,-1.20
2023-01-17T05:22:04.047Z,-1.20
2023-01-17T05:24:32.278Z,-1.30
2023-01-17T05:27:03.025Z,-1.40
2023-01-17T05:29:31.150Z,-1.50
2023-01-17T05:31:58.935Z,-1.60
2023-01-17T05:34:28.034Z,-1.50
2023-01-17T05:36:56.134Z,-1.50
2023-01-17T05:39:23.958Z,-1.50
2023-01-17T05:41:51.760Z,-1.40
2023-01-17T05:44:19.549Z,-1.40
2023-01-17T05:46:47.347Z,-1.80
2023-01-17T05:49:15.152Z,-1.80
2023-01-17T05:51:44.292Z,-1.90
2023-01-17T05:54:12.085Z,-1.80
2023-01-17T05:56:39.902Z,-1.90
2023-01-17T05:59:07.687Z,-1.90
2023-01-17T06:01:35.496Z,-1.90
2023-01-17T06:04:03.295Z,-1.90
2023-01-17T06:06:31.070Z,-1.90
2023-01-17T06:09:00.204Z,-1.80
2023-01-17T06:11:27.996Z,-1.80
2023-01-17T06:13:55.784Z,-1.50
2023-01-17T06:16:23.692Z,-1.60
2023-01-17T06:18:51.787Z,-1.50
2023-01-17T06:21:19.676Z,-1.60
2023-01-17T06:23:47.483Z,-1.70
2023-01-17T06:26:16.632Z,-1.90
2023-01-17T06:28:44.468Z,-1.70
2023-01-17T06:31:12.462Z,-1.70
2023-01-17T06:33:40.285Z,-1.60
2023-01-17T06:36:08.403Z,-1.60
2023-01-17T06:38:36.194Z,-1.80
2023-01-17T06:41:05.683Z,-1.80
2023-01-17T06:43:34.953Z,-1.90
2023-01-17T06:46:02.799Z,-2.00
2023-01-17T06:48:30.576Z,-2.00
2023-01-17T06:50:58.605Z,-1.90
2023-01-17T06:53:26.426Z,-2.10
2023-01-17T06:55:56.898Z,-2.10
2023-01-17T06:58:24.767Z,-2.20
2023-01-17T07:00:53.963Z,-2.00
2023-01-17T07:03:22.421Z,-2.00
2023-01-17T07:05:50.418Z,-2.20
2023-01-17T07:08:18.485Z,-2.10
2023-01-17T07:10:46.589Z,-2.20
2023-01-17T07:13:14.649Z,-2.00
2023-01-17T07:15:42.567Z,-2.20
2023-01-17T07:18:11.779Z,-2.00
2023-01-17T07:20:39.563Z,-2.10
2023-01-17T07:23:07.440Z,-1.90
2023-01-17T07:25:35.255Z,-1.70
2023-01-17T07:28:03.042Z,-1.80
2023-01-17T07:30:30.870Z,-1.90
2023-01-17T07:32:58.690Z,-2.00
2023-01-17T07:35:27.852Z,-1.90
2023-01-17T07:37:55.704Z,-1.80
2023-01-17T07:40:23.606Z,-1.80
2023-01-17T07:42:51.412Z,-1.70
2023-01-17T07:45:20.156Z,-1.80
2023-01-17T07:47:49.949Z,-2.20
2023-01-17T07:50:17.909Z,-2.20
2023-01-17T07:52:51.761Z,-2.30
2023-01-17T07:55:19.558Z,-2.20
2023-01-17T07:57:50.171Z,-2.20
2023-01-17T08:00:19.107Z,-2.00
2023-01-17T08:02:46.874Z,-2.00
2023-01-17T08:05:14.745Z,-2.10
2023-01-17T08:07:42.516Z,-2.30
2023-01-17T08:10:17.809Z,-2.20
2023-01-17T08:12:46.553Z,-2.10
2023-01-17T08:15:14.412Z,-2.00
2023-01-17T08:17:46.532Z,-1.80
2023-01-17T08:20:14.375Z,-1.70
2023-01-17T08:22:42.144Z,-1.60
2023-01-17T08:25:12.598Z,-1.50
2023-01-17T08:27:40.471Z,-1.40
2023-01-17T08:30:09.565Z,-1.20
2023-01-17T08:32:40.589Z,-1.10
2023-01-17T08:35:09.080Z,-1.10
2023-01-17T08:37:37.732Z,-1.20
2023-01-17T08:40:06.520Z,-1.10
2023-01-17T08:42:39.257Z,-1.10
2023-01-17T08:45:08.148Z,1.10
2023-01-17T08:47:35.982Z,0.60
2023-01-17T08:50:04.038Z,0.70
2023-01-17T08:52:31.807Z,0.50
2023-01-17T08:54:59.610Z,0.10
2023-01-17T08:57:27.390Z,0.00
2023-01-17T08:59:56.521Z,0.10
2023-01-17T09:02:24.742Z,0.10
2023-01-17T09:04:53.653Z,0.30
2023-01-17T09:07:21.642Z,0.20
2023-01-17T09:09:49.424Z,0.20
2023-01-17T09:12:17.216Z,0.30
2023-01-17T09:14:45.009Z,0.30
2023-01-17T09:17:14.626Z,0.50
2023-01-17T09:19:46.513Z,1.00
2023-01-17T09:22:14.382Z,1.10
2023-01-17T09:24:42.444Z,1.50
2023-01-17T09:27:10.366Z,1.40
2023-01-17T09:29:38.163Z,1.60
2023-01-17T09:32:06.568Z,1.80
2023-01-17T09:34:35.787Z,1.90
2023-01-17T09:37:03.593Z,2.00
2023-01-17T09:39:31.418Z,2.70
2023-01-17T09:42:01.889Z,3.00
2023-01-17T09:44:31.911Z,2.90
2023-01-17T09:47:01.228Z,3.20
2023-01-17T09:49:36.118Z,3.40
2023-01-17T09:52:04.064Z,3.50
2023-01-17T09:54:34.626Z,3.60
2023-01-17T09:57:04.307Z,3.60
2023-01-17T09:59:36.583Z,3.60
2023-01-17T10:02:10.810Z,3.80
2023-01-17T10:04:51.311Z,4.00
2023-01-17T10:07:25.564Z,4.10
2023-01-17T10:10:06.383Z,4.30
2023-01-17T10:12:38.067Z,4.80
2023-01-17T10:15:19.900Z,5.00
2023-01-17T10:17:52.713Z,5.30
2023-01-17T10:20:33.890Z,5.50
2023-01-17T10:23:08.339Z,5.60
2023-01-17T10:25:42.843Z,5.60
2023-01-17T10:28:14.940Z,5.10
2023-01-17T10:30:48.661Z,5.10
2023-01-17T10:33:19.037Z,4.80
2023-01-17T10:35:55.023Z,4.50
2023-01-17T10:38:24.999Z,4.60
2023-01-17T10:40:55.102Z,4.50
2023-01-17T10:43:25.241Z,4.50
2023-01-17T10:45:54.496Z,4.50
2023-01-17T10:48:29.819Z,4.20
2023-01-17T10:51:02.604Z,4.00
2023-01-17T10:53:38.391Z,3.90
2023-01-17T10:56:06.491Z,3.90
2023-01-17T10:58:34.315Z,3.90
2023-01-17T11:01:02.964Z,3.90
2023-01-17T11:03:31.104Z,3.90
2023-01-17T11:06:20.372Z,3.70
2023-01-17T11:08:55.504Z,3.50
2023-01-17T11:11:25.171Z,3.40
2023-01-17T11:13:54.201Z,3.50
2023-01-17T11:16:24.718Z,3.50
2023-01-17T11:19:06.650Z,3.50
2023-01-17T11:21:35.795Z,3.50
2023-01-17T11:24:10.702Z,3.50
2023-01-17T11:26:38.589Z,3.60
2023-01-17T11:29:16.041Z,3.60
2023-01-17T11:31:43.865Z,3.50
2023-01-17T11:34:18.444Z,3.60
2023-01-17T11:36:48.466Z,3.70
2023-01-17T11:39:27.529Z,3.50
2023-01-17T11:41:55.641Z,3.70
2023-01-17T11:44:25.707Z,3.60
2023-01-17T11:47:16.999Z,3.50
2023-01-17T11:49:45.529Z,3.60
2023-01-17T11:52:19.749Z,3.60
2023-01-17T11:54:48.129Z,3.60
2023-01-17T11:57:21.275Z,3.50
2023-01-17T11:59:49.092Z,3.40
2023-01-17T12:02:35.835Z,3.70
2023-01-17T12:05:23.523Z,3.70
2023-01-17T12:07:54.418Z,3.70
2023-01-17T12:10:24.304Z,3.70
2023-01-17T12:13:13.994Z,3.50
2023-01-17T12:15:51.709Z,3.50
2023-01-17T12:18:28.364Z,3.50
2023-01-17T12:21:00.355Z,3.40
2023-01-17T12:23:36.725Z,3.50
2023-01-17T12:26:12.334Z,3.50
2023-01-17T12:29:04.515Z,3.30
2023-01-17T12:31:33.545Z,3.30
2023-01-17T12:34:07.920Z,3.40
2023-01-17T12:36:40.116Z,3.40
2023-01-17T12:39:11.913Z,3.30
2023-01-17T12:41:53.447Z,3.10
2023-01-17T12:44:22.428Z,3.20
2023-01-17T12:46:52.649Z,3.20
2023-01-17T12:49:23.953Z,3.30
2023-01-17T12:51:53.894Z,3.30
2023-01-17T12:54:26.496Z,3.20
2023-01-17T12:56:56.092Z,3.10
2023-01-17T12:59:26.788Z,3.20
2023-01-17T13:01:57.635Z,3.20
2023-01-17T13:04:26.700Z,3.20
2023-01-17T13:07:01.647Z,3.00
2023-01-17T13:09:32.536Z,3.00
2023-01-17T13:12:02.905Z,3.00
2023-01-17T13:14:30.742Z,3.10
2023-01-17T13:16:59.652Z,3.10
2023-01-17T13:19:34.138Z,3.00
2023-01-17T13:22:02.646Z,3.00
2023-01-17T13:24:38.010Z,3.10
2023-01-17T13:27:21.970Z,3.00
2023-01-17T13:29:57.362Z,2.90
2023-01-17T13:32:41.402Z,3.10
2023-01-17T13:35:15.545Z,3.10
2023-01-17T13:38:05.125Z,3.10
2023-01-17T13:40:40.247Z,3.10
2023-01-17T13:43:13.440Z,3.20
2023-01-17T13:45:41.321Z,3.10
2023-01-17T13:48:29.908Z,3.10
2023-01-17T13:50:58.451Z,3.20
2023-01-17T13:53:59.499Z,3.10
2023-01-17T13:56:33.698Z,3.40
2023-01-17T13:59:05.568Z,3.60
2023-01-17T14:01:51.981Z,3.70
2023-01-17T14:04:20.124Z,3.70
2023-01-17T14:06:50.015Z,3.70
2023-01-17T14:09:24.372Z,3.70
2023-01-17T14:12:01.994Z,3.80
2023-01-17T14:14:45.386Z,3.60
2023-01-17T14:17:49.897Z,3.60
2023-01-17T14:20:43.351Z,3.40
2023-01-17T14:23:53.310Z,3.40
2023-01-17T14:26:33.134Z,3.40
2023-01-17T14:29:40.895Z,3.40
2023-01-17T14:32:11.249Z,3.10
2023-01-17T14:34:39.074Z,3.20
2023-01-17T14:37:14.882Z,3.20
2023-01-17T14:39:46.803Z,3.10
2023-01-17T14:42:15.539Z,2.90
2023-01-17T14:44:52.088Z,3.10
2023-01-17T14:47:19.906Z,2.80
2023-01-17T14:49:47.719Z,2.80
2023-01-17T14:52:17.821Z,2.90
2023-01-17T14:54:49.489Z,2.70
2023-01-17T14:57:27.456Z,2.70
2023-01-17T15:02:47.918Z,2.70
2023-01-17T15:05:16.055Z,2.70
2023-01-17T15:07:44.480Z,2.70
2023-01-17T15:10:14.048Z,2.60
2023-01-17T15:12:46.469Z,2.50
2023-01-17T15:15:32.043Z,2.50
2023-01-17T15:18:17.087Z,2.40
2023-01-17T15:20:46.740Z,2.20
2023-01-17T15:23:14.708Z,2.10
2023-01-17T15:25:42.504Z,2.10
2023-01-17T15:28:10.546Z,2.30
2023-01-17T15:30:38.359Z,2.20
2023-01-17T15:33:06.180Z,2.20
2023-01-17T15:35:35.316Z,2.30
2023-01-17T15:38:04.972Z,2.30
2023-01-17T15:40:33.189Z,2.20
2023-01-17T15:43:01.675Z,2.20
2023-01-17T15:45:30.403Z,2.10
2023-01-17T15:47:59.148Z,2.00
2023-01-17T15:50:30.194Z,2.00
2023-01-17T15:53:00.808Z,2.00
2023-01-17T15:55:31.657Z,2.10
2023-01-17T15:57:59.524Z,2.00
2023-01-17T16:00:32.635Z,1.70
2023-01-17T16:03:00.769Z,1.70
2023-01-17T16:05:43.708Z,1.70
2023-01-17T16:08:40.372Z,1.70
2023-01-17T16:11:09.198Z,1.80
2023-01-17T16:13:38.555Z,1.90
2023-01-17T16:16:20.970Z,1.80
2023-01-17T16:18:49.001Z,1.70
2023-01-17T16:21:22.368Z,1.70
2023-01-17T16:23:51.679Z,1.60
2023-01-17T16:26:19.591Z,1.50
2023-01-17T16:28:47.464Z,1.50
2023-01-17T16:31:15.299Z,1.60
2023-01-17T16:33:43.411Z,1.60
2023-01-17T16:36:16.261Z,1.70
2023-01-17T16:38:44.281Z,1.70
2023-01-17T16:41:13.429Z,1.70
2023-01-17T16:43:41.243Z,1.40
2023-01-17T16:46:09.597Z,1.50
2023-01-17T16:48:37.966Z,1.70
2023-01-17T16:51:06.513Z,1.70
2023-01-17T16:53:34.339Z,1.80
2023-01-17T16:56:07.516Z,1.70
2023-01-17T16:58:36.603Z,1.60
2023-01-17T17:01:05.091Z,1.80
2023-01-17T17:03:32.931Z,1.80
2023-01-17T17:06:01.571Z,1.80
2023-01-17T17:08:29.945Z,1.80
2023-01-17T17:11:08.819Z,1.80
2023-01-17T17:13:37.991Z,1.80
2023-01-17T17:16:10.836Z,1.70
2023-01-17T17:18:38.881Z,1.70
2023-01-17T17:21:06.678Z,1.70
2023-01-17T17:23:34.689Z,1.70
2023-01-17T17:26:02.533Z,1.60
2023-01-17T17:28:30.307Z,1.70
2023-01-17T17:31:07.094Z,1.70
2023-01-17T17:33:35.015Z,1.60
2023-01-17T17:36:03.993Z,1.60
2023-01-17T17:38:35.098Z,1.50
2023-01-17T17:41:10.105Z,1.30
2023-01-17T17:43:39.018Z,1.50
2023-01-17T17:46:08.398Z,1.30
2023-01-17T17:48:36.275Z,1.40
2023-01-17T17:51:04.297Z,1.20
2023-01-17T17:53:32.167Z,1.20
2023-01-17T17:56:04.369Z,1.30
2023-01-17T17:58:34.038Z,1.40
2023-01-17T18:01:03.936Z,1.40
2023-01-17T18:03:33.250Z,1.40
2023-01-17T18:06:05.139Z,1.40
2023-01-17T18:08:33.772Z,3.00
2023-01-17T18:11:02.131Z,3.30
2023-01-17T18:13:30.496Z,2.30
2023-01-17T18:16:04.648Z,1.80
2023-01-17T18:18:34.043Z,1.50
2023-01-17T18:21:09.107Z,1.50
2023-01-17T18:23:38.557Z,1.20
2023-01-17T18:26:06.726Z,1.20
2023-01-17T18:28:34.556Z,1.30
2023-01-17T18:31:08.369Z,1.20
2023-01-17T18:33:38.693Z,1.30
2023-01-17T18:36:07.469Z,1.20
2023-01-17T18:38:41.739Z,1.30
2023-01-17T18:41:12.158Z,1.30
2023-01-17T18:43:39.987Z,1.20
2023-01-17T18:46:07.854Z,1.30
2023-01-17T18:48:36.996Z,1.40
2023-01-17T18:51:06.300Z,1.50
2023-01-17T18:53:35.111Z,1.50
2023-01-17T18:56:04.167Z,1.40
2023-01-17T18:58:32.304Z,1.40
2023-01-17T19:01:07.507Z,1.40
2023-01-17T19:03:36.759Z,1.40
2023-01-17T19:06:05.037Z,1.30
2023-01-17T19:08:33.311Z,1.30
2023-01-17T19:11:01.222Z,1.40
2023-01-17T19:13:29.019Z,1.50
2023-01-17T19:16:00.581Z,1.40
2023-01-17T19:18:28.415Z,1.30
2023-01-17T19:20:57.627Z,1.30
2023-01-17T19:23:25.469Z,1.20
2023-01-17T19:25:56.120Z,1.20
2023-01-17T19:28:24.054Z,1.10
2023-01-17T19:31:01.589Z,1.10
2023-01-17T19:33:29.427Z,1.20
2023-01-17T19:36:01.009Z,1.20
2023-01-17T19:38:28.977Z,1.30
2023-01-17T19:40:56.796Z,1.40
2023-01-17T19:43:24.738Z,1.40
2023-01-17T19:45:59.470Z,1.50
2023-01-17T19:48:27.738Z,1.40
2023-01-17T19:50:55.587Z,1.30
2023-01-17T19:53:24.919Z,1.30
2023-01-17T19:55:52.747Z,1.10
2023-01-17T19:58:20.567Z,1.20
2023-01-17T20:00:48.376Z,1.10
2023-01-17T20:03:16.183Z,1.20
2023-01-17T20:05:46.005Z,1.40
2023-01-17T20:08:14.331Z,1.40
2023-01-17T20:10:49.060Z,1.30
2023-01-17T20:13:16.944Z,1.30
2023-01-17T20:15:44.707Z,1.30
2023-01-17T20:18:13.303Z,1.10
2023-01-17T20:20:56.261Z,1.30
2023-01-17T20:23:24.693Z,1.40
2023-01-17T20:25:59.151Z,1.30
2023-01-17T20:28:27.795Z,1.20
2023-01-17T20:30:55.924Z,1.10
2023-01-17T20:33:24.211Z,1.10
2023-01-17T20:36:08.746Z,1.20
2023-01-17T20:38:44.359Z,1.30
2023-01-17T20:41:15.247Z,1.30
2023-01-17T20:43:43.154Z,1.10
2023-01-17T20:46:11.528Z,1.20
2023-01-17T20:48:44.277Z,1.10
2023-01-17T20:51:12.257Z,1.00
2023-01-17T20:53:41.569Z,1.00
2023-01-17T20:56:09.749Z,1.10
2023-01-17T20:58:39.269Z,1.10
2023-01-17T21:01:07.764Z,1.10
2023-01-17T21:03:36.074Z,1.20
2023-01-17T21:06:04.826Z,1.10
2023-01-17T21:08:32.711Z,1.00
2023-01-17T21:11:00.623Z,1.00
2023-01-17T21:13:28.416Z,1.10
2023-01-17T21:15:57.576Z,1.20
2023-01-17T21:18:26.269Z,1.40
2023-01-17T21:20:54.093Z,1.20
2023-01-17T21:23:26.268Z,1.20
2023-01-17T21:25:57.526Z,1.30
2023-01-17T21:28:26.053Z,1.20
2023-01-17T21:30:54.113Z,1.10
2023-01-17T21:33:24.577Z,1.10
2023-01-17T21:35:52.432Z,1.10
2023-01-17T21:38:20.265Z,1.10
2023-01-17T21:40:48.170Z,1.20
2023-01-17T21:43:16.251Z,1.20
2023-01-17T21:45:44.095Z,1.20
2023-01-17T21:48:13.116Z,1.20
2023-01-17T21:50:42.392Z,1.30
2023-01-17T21:53:10.974Z,1.20
2023-01-17T21:55:56.581Z,1.20
2023-01-17T21:58:42.014Z,1.20
2023-01-17T22:01:15.912Z,1.20
2023-01-17T22:03:44.045Z,1.20
2023-01-17T22:06:13.172Z,1.20
2023-01-17T22:08:40.975Z,1.10
2023-01-17T22:11:10.750Z,1.20
2023-01-17T22:13:39.174Z,1.10
2023-01-17T22:16:08.632Z,1.20
2023-01-17T22:18:37.202Z,1.20
2023-01-17T22:21:06.477Z,1.20
2023-01-17T22:23:35.817Z,1.20
2023-01-17T22:26:04.340Z,1.20
2023-01-17T22:28:32.832Z,1.10
2023-01-17T22:31:06.523Z,1.10
2023-01-17T22:33:34.356Z,1.00
2023-01-17T22:36:02.163Z,1.00
2023-01-17T22:38:29.975Z,1.00
2023-01-17T22:41:07.801Z,1.00
2023-01-17T22:43:37.292Z,0.90
2023-01-17T22:46:05.848Z,1.00
2023-01-17T22:48:33.944Z,1.00
2023-01-17T22:51:02.448Z,1.10
2023-01-17T22:53:30.514Z,1.00
2023-01-17T22:56:03.308Z,1.00
2023-01-17T22:58:31.176Z,1.00
2023-01-17T23:01:04.814Z,1.00
2023-01-17T23:03:32.963Z,1.00
2023-01-17T23:06:09.583Z,0.90
2023-01-17T23:08:37.440Z,0.90
2023-01-17T23:11:35.633Z,1.00
2023-01-17T23:14:03.448Z,0.90
2023-01-17T23:16:54.264Z,0.80
2023-01-17T23:19:24.806Z,0.90
2023-01-17T23:22:11.313Z,1.00
2023-01-17T23:24:43.235Z,1.20
2023-01-17T23:27:33.960Z,1.80
2023-01-17T23:30:01.887Z,1.40
2023-01-17T23:32:29.742Z,1.20
2023-01-17T23:34:57.546Z,1.20
2023-01-17T23:37:49.976Z,0.90
2023-01-17T23:40:18.496Z,1.10
2023-01-17T23:43:05.366Z,1.10
2023-01-17T23:45:35.512Z,0.90
2023-01-17T23:48:04.978Z,1.00
2023-01-17T23:50:32.802Z,1.20
2023-01-17T23:53:05.789Z,1.00
2023-01-17T23:55:33.632Z,0.90
2023-01-17T23:58:02.844Z,0.90
